Urb Ensanche Ramirez, Puerto Rico
Current Conditions -  °F | °C
As of 1:50 PM on Friday 21 Nov 2014 (Local Time) from TJBQ Reporting Station
Scattered Clouds Scattered Clouds  
Wind Chill: 84°   Ceiling: Unl
Heat Index: 90°   Visibility: 10mi
Dew Point: 72°   Wind: 18mph
Humidity: 66%   Direction: 90°E
Pressure: 29.98"   Gusts: NA
Location:  18.203°N, 67.14°W
Report Text: TJBQ 211750Z 09016KT 10SM SCT027 29/22 A2998 RMK RWY08 ATIS W
Loading
Personal Weather Stations






























Interactive Weather Map New forecast layout! Learn more

10-Day Weather Forecast

Advertisements
Track Severe Weather on mobile